sensor_id;sensor_type;location;lat;lon;timestamp;pressure;altitude;pressure_sealevel;temperature
37536;BMP180;23379;51.554;6.736;2023-12-20T00:01:26;100923.00;;;7.90
37536;BMP180;23379;51.554;6.736;2023-12-20T00:03:51;100888.00;;;7.70
37536;BMP180;23379;51.554;6.736;2023-12-20T00:06:17;100935.00;;;7.60
37536;BMP180;23379;51.554;6.736;2023-12-20T00:08:42;100942.00;;;7.60
37536;BMP180;23379;51.554;6.736;2023-12-20T00:11:07;100909.00;;;7.60
37536;BMP180;23379;51.554;6.736;2023-12-20T00:13:33;100892.00;;;7.20
37536;BMP180;23379;51.554;6.736;2023-12-20T00:15:58;100944.00;;;7.20
37536;BMP180;23379;51.554;6.736;2023-12-20T00:18:23;100943.00;;;7.20
37536;BMP180;23379;51.554;6.736;2023-12-20T00:20:49;100914.00;;;7.30
37536;BMP180;23379;51.554;6.736;2023-12-20T00:23:14;100928.00;;;7.20
37536;BMP180;23379;51.554;6.736;2023-12-20T00:25:40;100876.00;;;7.30
37536;BMP180;23379;51.554;6.736;2023-12-20T00:28:05;100934.00;;;7.10
37536;BMP180;23379;51.554;6.736;2023-12-20T00:30:31;100959.00;;;7.20
37536;BMP180;23379;51.554;6.736;2023-12-20T00:32:57;100902.00;;;7.30
37536;BMP180;23379;51.554;6.736;2023-12-20T00:35:22;100942.00;;;7.30
37536;BMP180;23379;51.554;6.736;2023-12-20T00:37:47;100924.00;;;7.50
37536;BMP180;23379;51.554;6.736;2023-12-20T00:40:13;100950.00;;;7.50
37536;BMP180;23379;51.554;6.736;2023-12-20T00:42:38;100956.00;;;7.40
37536;BMP180;23379;51.554;6.736;2023-12-20T00:45:04;100936.00;;;7.40
37536;BMP180;23379;51.554;6.736;2023-12-20T00:47:30;100975.00;;;7.20
37536;BMP180;23379;51.554;6.736;2023-12-20T00:49:56;100894.00;;;7.30
37536;BMP180;23379;51.554;6.736;2023-12-20T00:52:22;100919.00;;;7.20
37536;BMP180;23379;51.554;6.736;2023-12-20T00:54:48;100969.00;;;7.40
37536;BMP180;23379;51.554;6.736;2023-12-20T00:57:13;100921.00;;;7.20
37536;BMP180;23379;51.554;6.736;2023-12-20T00:59:39;100962.00;;;7.30
37536;BMP180;23379;51.554;6.736;2023-12-20T01:02:04;100950.00;;;7.30
37536;BMP180;23379;51.554;6.736;2023-12-20T01:04:30;100969.00;;;7.10
37536;BMP180;23379;51.554;6.736;2023-12-20T01:06:55;100948.00;;;7.00
37536;BMP180;23379;51.554;6.736;2023-12-20T01:09:20;100944.00;;;7.40
37536;BMP180;23379;51.554;6.736;2023-12-20T01:11:49;100957.00;;;7.40
37536;BMP180;23379;51.554;6.736;2023-12-20T01:14:14;100890.00;;;7.30
37536;BMP180;23379;51.554;6.736;2023-12-20T01:16:40;100960.00;;;7.10
37536;BMP180;23379;51.554;6.736;2023-12-20T01:19:05;100959.00;;;7.40
37536;BMP180;23379;51.554;6.736;2023-12-20T01:21:30;100983.00;;;7.20
37536;BMP180;23379;51.554;6.736;2023-12-20T01:23:56;100954.00;;;6.90
37536;BMP180;23379;51.554;6.736;2023-12-20T01:26:21;100957.00;;;6.60
37536;BMP180;23379;51.554;6.736;2023-12-20T01:28:46;100982.00;;;6.90
37536;BMP180;23379;51.554;6.736;2023-12-20T01:31:12;100941.00;;;6.90
37536;BMP180;23379;51.554;6.736;2023-12-20T01:33:37;100977.00;;;6.90
37536;BMP180;23379;51.554;6.736;2023-12-20T01:36:03;100968.00;;;6.70
37536;BMP180;23379;51.554;6.736;2023-12-20T01:38:29;100986.00;;;6.90
37536;BMP180;23379;51.554;6.736;2023-12-20T01:40:54;100967.00;;;6.90
37536;BMP180;23379;51.554;6.736;2023-12-20T01:43:20;100957.00;;;6.70
37536;BMP180;23379;51.554;6.736;2023-12-20T01:45:46;100961.00;;;6.70
37536;BMP180;23379;51.554;6.736;2023-12-20T01:50:48;100961.00;;;6.60
37536;BMP180;23379;51.554;6.736;2023-12-20T01:53:14;100984.00;;;6.60
37536;BMP180;23379;51.554;6.736;2023-12-20T01:55:40;100975.00;;;6.50
37536;BMP180;23379;51.554;6.736;2023-12-20T01:58:07;100979.00;;;6.50
37536;BMP180;23379;51.554;6.736;2023-12-20T02:00:34;100958.00;;;6.40
37536;BMP180;23379;51.554;6.736;2023-12-20T02:03:03;100978.00;;;6.50
37536;BMP180;23379;51.554;6.736;2023-12-20T02:05:34;100952.00;;;6.30
37536;BMP180;23379;51.554;6.736;2023-12-20T02:08:00;100968.00;;;6.20
37536;BMP180;23379;51.554;6.736;2023-12-20T02:10:26;100977.00;;;6.30
37536;BMP180;23379;51.554;6.736;2023-12-20T02:12:52;100961.00;;;6.30
37536;BMP180;23379;51.554;6.736;2023-12-20T02:15:17;100983.00;;;6.20
37536;BMP180;23379;51.554;6.736;2023-12-20T02:17:43;100985.00;;;6.20
37536;BMP180;23379;51.554;6.736;2023-12-20T02:20:09;100972.00;;;6.10
37536;BMP180;23379;51.554;6.736;2023-12-20T02:22:35;100965.00;;;6.00
37536;BMP180;23379;51.554;6.736;2023-12-20T02:25:00;100968.00;;;6.10
37536;BMP180;23379;51.554;6.736;2023-12-20T02:27:26;100961.00;;;6.00
37536;BMP180;23379;51.554;6.736;2023-12-20T02:29:52;100965.00;;;6.10
37536;BMP180;23379;51.554;6.736;2023-12-20T02:32:17;100985.00;;;6.00
37536;BMP180;23379;51.554;6.736;2023-12-20T02:34:43;100971.00;;;6.00
37536;BMP180;23379;51.554;6.736;2023-12-20T02:37:08;100940.00;;;6.00
37536;BMP180;23379;51.554;6.736;2023-12-20T02:39:34;100978.00;;;5.90
37536;BMP180;23379;51.554;6.736;2023-12-20T02:41:59;100957.00;;;5.80
37536;BMP180;23379;51.554;6.736;2023-12-20T02:44:24;100968.00;;;5.90
37536;BMP180;23379;51.554;6.736;2023-12-20T02:46:50;100957.00;;;5.80
37536;BMP180;23379;51.554;6.736;2023-12-20T02:49:15;100980.00;;;5.70
37536;BMP180;23379;51.554;6.736;2023-12-20T02:51:40;100985.00;;;5.70
37536;BMP180;23379;51.554;6.736;2023-12-20T02:54:06;100988.00;;;5.70
37536;BMP180;23379;51.554;6.736;2023-12-20T02:56:32;100985.00;;;5.80
37536;BMP180;23379;51.554;6.736;2023-12-20T02:58:58;100989.00;;;5.80
37536;BMP180;23379;51.554;6.736;2023-12-20T03:01:23;100977.00;;;5.90
37536;BMP180;23379;51.554;6.736;2023-12-20T03:03:49;100986.00;;;5.90
37536;BMP180;23379;51.554;6.736;2023-12-20T03:06:18;100988.00;;;5.90
37536;BMP180;23379;51.554;6.736;2023-12-20T03:08:44;100982.00;;;5.90
37536;BMP180;23379;51.554;6.736;2023-12-20T03:11:09;100968.00;;;5.80
37536;BMP180;23379;51.554;6.736;2023-12-20T03:13:34;100985.00;;;5.80
37536;BMP180;23379;51.554;6.736;2023-12-20T03:16:00;100963.00;;;5.80
37536;BMP180;23379;51.554;6.736;2023-12-20T03:18:25;100952.00;;;5.80
37536;BMP180;23379;51.554;6.736;2023-12-20T03:20:53;100942.00;;;5.70
37536;BMP180;23379;51.554;6.736;2023-12-20T03:23:18;100943.00;;;5.70
37536;BMP180;23379;51.554;6.736;2023-12-20T03:25:43;100919.00;;;5.60
37536;BMP180;23379;51.554;6.736;2023-12-20T03:28:09;100954.00;;;5.60
37536;BMP180;23379;51.554;6.736;2023-12-20T03:30:34;100946.00;;;5.60
37536;BMP180;23379;51.554;6.736;2023-12-20T03:32:59;100952.00;;;5.70
37536;BMP180;23379;51.554;6.736;2023-12-20T03:35:25;100957.00;;;5.60
37536;BMP180;23379;51.554;6.736;2023-12-20T03:37:50;100933.00;;;5.60
37536;BMP180;23379;51.554;6.736;2023-12-20T03:40:15;100976.00;;;5.60
37536;BMP180;23379;51.554;6.736;2023-12-20T03:42:41;100963.00;;;5.60
37536;BMP180;23379;51.554;6.736;2023-12-20T03:45:06;100962.00;;;5.60
37536;BMP180;23379;51.554;6.736;2023-12-20T03:47:32;100950.00;;;5.60
37536;BMP180;23379;51.554;6.736;2023-12-20T03:49:57;100948.00;;;5.50
37536;BMP180;23379;51.554;6.736;2023-12-20T03:52:23;100952.00;;;5.60
37536;BMP180;23379;51.554;6.736;2023-12-20T03:54:48;100948.00;;;5.60
37536;BMP180;23379;51.554;6.736;2023-12-20T03:57:13;100957.00;;;5.40
37536;BMP180;23379;51.554;6.736;2023-12-20T03:59:39;100954.00;;;5.50
37536;BMP180;23379;51.554;6.736;2023-12-20T04:02:04;100952.00;;;5.40
37536;BMP180;23379;51.554;6.736;2023-12-20T04:04:30;100944.00;;;5.50
37536;BMP180;23379;51.554;6.736;2023-12-20T04:06:55;100958.00;;;5.40
37536;BMP180;23379;51.554;6.736;2023-12-20T04:09:20;100938.00;;;5.40
37536;BMP180;23379;51.554;6.736;2023-12-20T04:11:46;100947.00;;;5.40
37536;BMP180;23379;51.554;6.736;2023-12-20T04:14:11;100948.00;;;5.40
37536;BMP180;23379;51.554;6.736;2023-12-20T04:16:37;100953.00;;;5.40
37536;BMP180;23379;51.554;6.736;2023-12-20T04:19:02;100947.00;;;5.40
37536;BMP180;23379;51.554;6.736;2023-12-20T04:21:27;100946.00;;;5.50
37536;BMP180;23379;51.554;6.736;2023-12-20T04:23:53;100940.00;;;5.50
37536;BMP180;23379;51.554;6.736;2023-12-20T04:26:18;100948.00;;;5.50
37536;BMP180;23379;51.554;6.736;2023-12-20T04:28:44;100971.00;;;5.40
37536;BMP180;23379;51.554;6.736;2023-12-20T04:31:09;100961.00;;;5.50
37536;BMP180;23379;51.554;6.736;2023-12-20T04:33:34;100970.00;;;5.60
37536;BMP180;23379;51.554;6.736;2023-12-20T04:36:00;100958.00;;;5.50
37536;BMP180;23379;51.554;6.736;2023-12-20T04:38:25;100944.00;;;5.50
37536;BMP180;23379;51.554;6.736;2023-12-20T04:40:51;100956.00;;;5.50
37536;BMP180;23379;51.554;6.736;2023-12-20T04:43:17;100958.00;;;5.50
37536;BMP180;23379;51.554;6.736;2023-12-20T04:45:43;100957.00;;;5.60
37536;BMP180;23379;51.554;6.736;2023-12-20T04:48:08;100953.00;;;5.60
37536;BMP180;23379;51.554;6.736;2023-12-20T04:50:33;100960.00;;;5.50
37536;BMP180;23379;51.554;6.736;2023-12-20T04:52:59;100955.00;;;5.50
37536;BMP180;23379;51.554;6.736;2023-12-20T04:55:25;100951.00;;;5.50
37536;BMP180;23379;51.554;6.736;2023-12-20T04:57:50;100946.00;;;5.60
37536;BMP180;23379;51.554;6.736;2023-12-20T05:00:16;100960.00;;;5.50
37536;BMP180;23379;51.554;6.736;2023-12-20T05:02:41;100944.00;;;5.60
37536;BMP180;23379;51.554;6.736;2023-12-20T05:05:07;100964.00;;;5.60
37536;BMP180;23379;51.554;6.736;2023-12-20T05:07:32;100954.00;;;5.70
37536;BMP180;23379;51.554;6.736;2023-12-20T05:09:58;100960.00;;;5.70
37536;BMP180;23379;51.554;6.736;2023-12-20T05:12:23;100950.00;;;5.70
37536;BMP180;23379;51.554;6.736;2023-12-20T05:14:49;100954.00;;;5.80
37536;BMP180;23379;51.554;6.736;2023-12-20T05:17:14;100959.00;;;5.60
37536;BMP180;23379;51.554;6.736;2023-12-20T05:19:40;100936.00;;;5.70
37536;BMP180;23379;51.554;6.736;2023-12-20T05:22:05;100944.00;;;5.80
37536;BMP180;23379;51.554;6.736;2023-12-20T05:24:30;100945.00;;;5.70
37536;BMP180;23379;51.554;6.736;2023-12-20T05:26:56;100954.00;;;5.70
37536;BMP180;23379;51.554;6.736;2023-12-20T05:29:21;100926.00;;;5.80
37536;BMP180;23379;51.554;6.736;2023-12-20T05:31:46;100941.00;;;5.70
37536;BMP180;23379;51.554;6.736;2023-12-20T05:34:12;100939.00;;;5.70
37536;BMP180;23379;51.554;6.736;2023-12-20T05:36:37;100942.00;;;5.70
37536;BMP180;23379;51.554;6.736;2023-12-20T05:39:04;100940.00;;;5.70
37536;BMP180;23379;51.554;6.736;2023-12-20T05:41:30;100927.00;;;5.60
37536;BMP180;23379;51.554;6.736;2023-12-20T05:43:56;100943.00;;;5.70
37536;BMP180;23379;51.554;6.736;2023-12-20T05:46:23;100926.00;;;5.90
37536;BMP180;23379;51.554;6.736;2023-12-20T05:48:49;100922.00;;;5.90
37536;BMP180;23379;51.554;6.736;2023-12-20T05:51:14;100921.00;;;5.90
37536;BMP180;23379;51.554;6.736;2023-12-20T05:53:39;100929.00;;;5.80
37536;BMP180;23379;51.554;6.736;2023-12-20T05:56:05;100923.00;;;5.80
37536;BMP180;23379;51.554;6.736;2023-12-20T05:58:32;100938.00;;;5.90
37536;BMP180;23379;51.554;6.736;2023-12-20T06:00:57;100941.00;;;5.90
37536;BMP180;23379;51.554;6.736;2023-12-20T06:03:23;100931.00;;;6.00
37536;BMP180;23379;51.554;6.736;2023-12-20T06:05:48;100923.00;;;6.00
37536;BMP180;23379;51.554;6.736;2023-12-20T06:08:14;100942.00;;;6.10
37536;BMP180;23379;51.554;6.736;2023-12-20T06:10:39;100946.00;;;6.00
37536;BMP180;23379;51.554;6.736;2023-12-20T06:13:05;100923.00;;;5.90
37536;BMP180;23379;51.554;6.736;2023-12-20T06:15:32;100920.00;;;6.30
37536;BMP180;23379;51.554;6.736;2023-12-20T06:17:57;100911.00;;;6.40
37536;BMP180;23379;51.554;6.736;2023-12-20T06:20:23;100936.00;;;6.30
37536;BMP180;23379;51.554;6.736;2023-12-20T06:22:48;100939.00;;;6.20
37536;BMP180;23379;51.554;6.736;2023-12-20T06:25:14;100966.00;;;6.30
37536;BMP180;23379;51.554;6.736;2023-12-20T06:27:39;100949.00;;;6.10
37536;BMP180;23379;51.554;6.736;2023-12-20T06:30:06;100932.00;;;6.20
37536;BMP180;23379;51.554;6.736;2023-12-20T06:32:34;100945.00;;;6.20
37536;BMP180;23379;51.554;6.736;2023-12-20T06:35:00;100966.00;;;6.20
37536;BMP180;23379;51.554;6.736;2023-12-20T06:37:25;100962.00;;;6.00
37536;BMP180;23379;51.554;6.736;2023-12-20T06:39:50;100905.00;;;6.20
37536;BMP180;23379;51.554;6.736;2023-12-20T06:42:16;100924.00;;;6.20
37536;BMP180;23379;51.554;6.736;2023-12-20T06:44:41;100946.00;;;6.10
37536;BMP180;23379;51.554;6.736;2023-12-20T06:47:07;100941.00;;;6.30
37536;BMP180;23379;51.554;6.736;2023-12-20T06:49:35;100944.00;;;6.20
37536;BMP180;23379;51.554;6.736;2023-12-20T06:52:00;100944.00;;;6.10
37536;BMP180;23379;51.554;6.736;2023-12-20T06:54:26;100949.00;;;6.10
37536;BMP180;23379;51.554;6.736;2023-12-20T06:56:51;100924.00;;;6.20
37536;BMP180;23379;51.554;6.736;2023-12-20T06:59:16;100943.00;;;6.30
37536;BMP180;23379;51.554;6.736;2023-12-20T07:01:42;100944.00;;;6.20
37536;BMP180;23379;51.554;6.736;2023-12-20T07:04:08;100923.00;;;6.20
37536;BMP180;23379;51.554;6.736;2023-12-20T07:06:33;100924.00;;;6.30
37536;BMP180;23379;51.554;6.736;2023-12-20T07:08:59;100929.00;;;6.40
37536;BMP180;23379;51.554;6.736;2023-12-20T07:11:24;100925.00;;;6.20
37536;BMP180;23379;51.554;6.736;2023-12-20T07:13:51;100929.00;;;6.20
37536;BMP180;23379;51.554;6.736;2023-12-20T07:16:16;100947.00;;;6.20
37536;BMP180;23379;51.554;6.736;2023-12-20T07:18:42;100917.00;;;6.20
37536;BMP180;23379;51.554;6.736;2023-12-20T07:21:07;100938.00;;;6.30
37536;BMP180;23379;51.554;6.736;2023-12-20T07:23:33;100939.00;;;6.40
37536;BMP180;23379;51.554;6.736;2023-12-20T07:25:58;100944.00;;;6.50
37536;BMP180;23379;51.554;6.736;2023-12-20T07:28:24;100932.00;;;6.40
37536;BMP180;23379;51.554;6.736;2023-12-20T07:30:50;100946.00;;;6.30
37536;BMP180;23379;51.554;6.736;2023-12-20T07:33:15;100937.00;;;6.40
37536;BMP180;23379;51.554;6.736;2023-12-20T07:35:41;100935.00;;;6.30
37536;BMP180;23379;51.554;6.736;2023-12-20T07:38:06;100939.00;;;6.30
37536;BMP180;23379;51.554;6.736;2023-12-20T07:40:32;100938.00;;;6.40
37536;BMP180;23379;51.554;6.736;2023-12-20T07:42:57;100930.00;;;6.40
37536;BMP180;23379;51.554;6.736;2023-12-20T07:45:23;100932.00;;;6.30
37536;BMP180;23379;51.554;6.736;2023-12-20T07:47:48;100930.00;;;6.40
37536;BMP180;23379;51.554;6.736;2023-12-20T07:50:15;100938.00;;;6.50
37536;BMP180;23379;51.554;6.736;2023-12-20T07:52:40;100944.00;;;6.40
37536;BMP180;23379;51.554;6.736;2023-12-20T07:55:06;100953.00;;;6.40
37536;BMP180;23379;51.554;6.736;2023-12-20T07:57:32;100940.00;;;6.40
37536;BMP180;23379;51.554;6.736;2023-12-20T07:59:57;100932.00;;;6.50
37536;BMP180;23379;51.554;6.736;2023-12-20T08:02:22;100921.00;;;6.40
37536;BMP180;23379;51.554;6.736;2023-12-20T08:04:48;100932.00;;;6.40
37536;BMP180;23379;51.554;6.736;2023-12-20T08:07:13;100935.00;;;6.40
37536;BMP180;23379;51.554;6.736;2023-12-20T08:09:39;100941.00;;;6.60
37536;BMP180;23379;51.554;6.736;2023-12-20T08:12:05;100913.00;;;6.50
37536;BMP180;23379;51.554;6.736;2023-12-20T08:14:30;100932.00;;;6.60
37536;BMP180;23379;51.554;6.736;2023-12-20T08:16:56;100935.00;;;6.50
37536;BMP180;23379;51.554;6.736;2023-12-20T08:19:22;100937.00;;;6.50
37536;BMP180;23379;51.554;6.736;2023-12-20T08:21:47;100938.00;;;6.60
37536;BMP180;23379;51.554;6.736;2023-12-20T08:24:12;100921.00;;;6.60
37536;BMP180;23379;51.554;6.736;2023-12-20T08:26:38;100937.00;;;6.60
37536;BMP180;23379;51.554;6.736;2023-12-20T08:29:03;100945.00;;;6.40
37536;BMP180;23379;51.554;6.736;2023-12-20T08:31:28;100959.00;;;6.50
37536;BMP180;23379;51.554;6.736;2023-12-20T08:33:54;100948.00;;;6.50
37536;BMP180;23379;51.554;6.736;2023-12-20T08:36:20;100940.00;;;6.40
37536;BMP180;23379;51.554;6.736;2023-12-20T08:38:47;100951.00;;;6.50
37536;BMP180;23379;51.554;6.736;2023-12-20T08:41:13;100948.00;;;6.60
37536;BMP180;23379;51.554;6.736;2023-12-20T08:43:38;100929.00;;;6.50
37536;BMP180;23379;51.554;6.736;2023-12-20T08:46:05;100960.00;;;6.60
37536;BMP180;23379;51.554;6.736;2023-12-20T08:48:31;100943.00;;;6.50
37536;BMP180;23379;51.554;6.736;2023-12-20T08:50:56;100958.00;;;6.50
37536;BMP180;23379;51.554;6.736;2023-12-20T08:53:22;100952.00;;;6.50
37536;BMP180;23379;51.554;6.736;2023-12-20T08:55:47;100959.00;;;6.50
37536;BMP180;23379;51.554;6.736;2023-12-20T08:58:13;100968.00;;;6.40
37536;BMP180;23379;51.554;6.736;2023-12-20T09:00:39;100949.00;;;6.40
37536;BMP180;23379;51.554;6.736;2023-12-20T09:03:05;100962.00;;;6.50
37536;BMP180;23379;51.554;6.736;2023-12-20T09:05:30;100933.00;;;6.50
37536;BMP180;23379;51.554;6.736;2023-12-20T09:07:56;100934.00;;;6.50
37536;BMP180;23379;51.554;6.736;2023-12-20T09:10:21;100904.00;;;6.40
37536;BMP180;23379;51.554;6.736;2023-12-20T09:12:50;100924.00;;;6.50
37536;BMP180;23379;51.554;6.736;2023-12-20T09:15:16;100950.00;;;6.60
37536;BMP180;23379;51.554;6.736;2023-12-20T09:17:41;100935.00;;;6.60
37536;BMP180;23379;51.554;6.736;2023-12-20T09:20:07;100940.00;;;6.60
37536;BMP180;23379;51.554;6.736;2023-12-20T09:22:34;100945.00;;;6.50
37536;BMP180;23379;51.554;6.736;2023-12-20T09:25:00;100936.00;;;6.60
37536;BMP180;23379;51.554;6.736;2023-12-20T09:27:27;100921.00;;;6.50
37536;BMP180;23379;51.554;6.736;2023-12-20T09:29:52;100929.00;;;6.50
37536;BMP180;23379;51.554;6.736;2023-12-20T09:32:18;100922.00;;;6.60
37536;BMP180;23379;51.554;6.736;2023-12-20T09:34:45;100920.00;;;6.50
37536;BMP180;23379;51.554;6.736;2023-12-20T09:37:11;100918.00;;;6.50
37536;BMP180;23379;51.554;6.736;2023-12-20T09:39:36;100911.00;;;6.50
37536;BMP180;23379;51.554;6.736;2023-12-20T09:42:03;100944.00;;;6.70
37536;BMP180;23379;51.554;6.736;2023-12-20T09:44:30;100934.00;;;6.70
37536;BMP180;23379;51.554;6.736;2023-12-20T09:46:56;100928.00;;;6.80
37536;BMP180;23379;51.554;6.736;2023-12-20T09:49:22;100919.00;;;6.70
37536;BMP180;23379;51.554;6.736;2023-12-20T09:51:50;100942.00;;;6.80
37536;BMP180;23379;51.554;6.736;2023-12-20T09:54:17;100937.00;;;6.70
37536;BMP180;23379;51.554;6.736;2023-12-20T09:56:44;100934.00;;;6.60
37536;BMP180;23379;51.554;6.736;2023-12-20T09:59:09;100933.00;;;6.70
37536;BMP180;23379;51.554;6.736;2023-12-20T10:01:35;100924.00;;;6.70
37536;BMP180;23379;51.554;6.736;2023-12-20T10:04:05;100930.00;;;6.70
37536;BMP180;23379;51.554;6.736;2023-12-20T10:06:35;100930.00;;;6.80
37536;BMP180;23379;51.554;6.736;2023-12-20T10:09:01;100928.00;;;6.80
37536;BMP180;23379;51.554;6.736;2023-12-20T10:11:26;100942.00;;;6.90
37536;BMP180;23379;51.554;6.736;2023-12-20T10:13:58;100937.00;;;6.90
37536;BMP180;23379;51.554;6.736;2023-12-20T10:16:24;100932.00;;;7.00
37536;BMP180;23379;51.554;6.736;2023-12-20T10:18:52;100918.00;;;7.00
37536;BMP180;23379;51.554;6.736;2023-12-20T10:21:18;100935.00;;;7.20
37536;BMP180;23379;51.554;6.736;2023-12-20T10:23:43;100910.00;;;7.20
37536;BMP180;23379;51.554;6.736;2023-12-20T10:26:09;100934.00;;;7.10
37536;BMP180;23379;51.554;6.736;2023-12-20T10:28:35;100922.00;;;7.20
37536;BMP180;23379;51.554;6.736;2023-12-20T10:31:00;100917.00;;;7.00
37536;BMP180;23379;51.554;6.736;2023-12-20T10:33:27;100915.00;;;7.10
37536;BMP180;23379;51.554;6.736;2023-12-20T10:35:54;100920.00;;;7.10
37536;BMP180;23379;51.554;6.736;2023-12-20T10:38:19;100925.00;;;6.90
37536;BMP180;23379;51.554;6.736;2023-12-20T10:40:45;100921.00;;;7.10
37536;BMP180;23379;51.554;6.736;2023-12-20T10:43:11;100909.00;;;7.20
37536;BMP180;23379;51.554;6.736;2023-12-20T10:45:37;100896.00;;;7.40
37536;BMP180;23379;51.554;6.736;2023-12-20T10:48:03;100904.00;;;7.30
37536;BMP180;23379;51.554;6.736;2023-12-20T10:50:29;100911.00;;;7.20
37536;BMP180;23379;51.554;6.736;2023-12-20T10:52:58;100909.00;;;7.30
37536;BMP180;23379;51.554;6.736;2023-12-20T10:55:24;100929.00;;;7.40
37536;BMP180;23379;51.554;6.736;2023-12-20T10:58:07;100920.00;;;7.40
37536;BMP180;23379;51.554;6.736;2023-12-20T11:00:37;100922.00;;;7.30
37536;BMP180;23379;51.554;6.736;2023-12-20T11:03:04;100927.00;;;7.40
37536;BMP180;23379;51.554;6.736;2023-12-20T11:05:58;100920.00;;;7.30
37536;BMP180;23379;51.554;6.736;2023-12-20T11:08:49;100920.00;;;7.30
37536;BMP180;23379;51.554;6.736;2023-12-20T11:11:34;100907.00;;;7.40
37536;BMP180;23379;51.554;6.736;2023-12-20T11:14:04;100891.00;;;7.40
37536;BMP180;23379;51.554;6.736;2023-12-20T11:16:33;100887.00;;;7.40
37536;BMP180;23379;51.554;6.736;2023-12-20T11:19:04;100892.00;;;7.50
37536;BMP180;23379;51.554;6.736;2023-12-20T11:21:30;100894.00;;;7.50
37536;BMP180;23379;51.554;6.736;2023-12-20T11:23:56;100887.00;;;7.60
37536;BMP180;23379;51.554;6.736;2023-12-20T11:26:28;100900.00;;;7.50
37536;BMP180;23379;51.554;6.736;2023-12-20T11:28:54;100900.00;;;7.70
37536;BMP180;23379;51.554;6.736;2023-12-20T11:31:19;100892.00;;;7.50
37536;BMP180;23379;51.554;6.736;2023-12-20T11:33:45;100885.00;;;7.70
37536;BMP180;23379;51.554;6.736;2023-12-20T11:36:19;100881.00;;;7.40
37536;BMP180;23379;51.554;6.736;2023-12-20T11:39:04;100868.00;;;7.30
37536;BMP180;23379;51.554;6.736;2023-12-20T11:41:33;100864.00;;;7.40
37536;BMP180;23379;51.554;6.736;2023-12-20T11:43:59;100873.00;;;7.20
37536;BMP180;23379;51.554;6.736;2023-12-20T11:46:26;100865.00;;;7.20
37536;BMP180;23379;51.554;6.736;2023-12-20T11:48:51;100866.00;;;7.30
37536;BMP180;23379;51.554;6.736;2023-12-20T11:51:17;100880.00;;;7.30
37536;BMP180;23379;51.554;6.736;2023-12-20T11:53:42;100852.00;;;7.20
37536;BMP180;23379;51.554;6.736;2023-12-20T11:56:08;100859.00;;;7.30
37536;BMP180;23379;51.554;6.736;2023-12-20T11:58:34;100851.00;;;7.30
37536;BMP180;23379;51.554;6.736;2023-12-20T12:00:59;100830.00;;;7.30
37536;BMP180;23379;51.554;6.736;2023-12-20T12:03:25;100847.00;;;7.50
37536;BMP180;23379;51.554;6.736;2023-12-20T12:05:50;100868.00;;;7.40
37536;BMP180;23379;51.554;6.736;2023-12-20T12:08:17;100837.00;;;7.90
37536;BMP180;23379;51.554;6.736;2023-12-20T12:10:45;100828.00;;;8.00
37536;BMP180;23379;51.554;6.736;2023-12-20T12:13:11;100844.00;;;8.10
37536;BMP180;23379;51.554;6.736;2023-12-20T12:15:36;100852.00;;;8.30
37536;BMP180;23379;51.554;6.736;2023-12-20T12:18:03;100847.00;;;8.60
37536;BMP180;23379;51.554;6.736;2023-12-20T12:20:28;100801.00;;;8.50
37536;BMP180;23379;51.554;6.736;2023-12-20T12:23:04;100862.00;;;8.00
37536;BMP180;23379;51.554;6.736;2023-12-20T12:25:32;100792.00;;;7.70
37536;BMP180;23379;51.554;6.736;2023-12-20T12:28:01;100786.00;;;7.60
37536;BMP180;23379;51.554;6.736;2023-12-20T12:30:26;100808.00;;;7.80
37536;BMP180;23379;51.554;6.736;2023-12-20T12:32:52;100793.00;;;7.80
37536;BMP180;23379;51.554;6.736;2023-12-20T12:35:18;100849.00;;;7.90
37536;BMP180;23379;51.554;6.736;2023-12-20T12:37:44;100798.00;;;7.80
37536;BMP180;23379;51.554;6.736;2023-12-20T12:40:11;100799.00;;;7.90
37536;BMP180;23379;51.554;6.736;2023-12-20T12:42:37;100794.00;;;7.70
37536;BMP180;23379;51.554;6.736;2023-12-20T12:45:03;100797.00;;;7.70
37536;BMP180;23379;51.554;6.736;2023-12-20T12:47:30;100790.00;;;7.80
37536;BMP180;23379;51.554;6.736;2023-12-20T12:49:56;100826.00;;;7.70
37536;BMP180;23379;51.554;6.736;2023-12-20T12:52:21;100793.00;;;7.70
37536;BMP180;23379;51.554;6.736;2023-12-20T12:54:46;100773.00;;;7.80
37536;BMP180;23379;51.554;6.736;2023-12-20T12:57:14;100752.00;;;7.70
37536;BMP180;23379;51.554;6.736;2023-12-20T12:59:39;100739.00;;;7.60
37536;BMP180;23379;51.554;6.736;2023-12-20T13:02:05;100772.00;;;7.60
37536;BMP180;23379;51.554;6.736;2023-12-20T13:04:30;100813.00;;;7.60
37536;BMP180;23379;51.554;6.736;2023-12-20T13:06:56;100741.00;;;7.50
37536;BMP180;23379;51.554;6.736;2023-12-20T13:09:22;100723.00;;;7.50
37536;BMP180;23379;51.554;6.736;2023-12-20T13:11:48;100759.00;;;7.60
37536;BMP180;23379;51.554;6.736;2023-12-20T13:14:13;100730.00;;;7.50
37536;BMP180;23379;51.554;6.736;2023-12-20T13:16:41;100735.00;;;7.30
37536;BMP180;23379;51.554;6.736;2023-12-20T13:19:07;100708.00;;;7.50
37536;BMP180;23379;51.554;6.736;2023-12-20T13:21:32;100736.00;;;7.30
37536;BMP180;23379;51.554;6.736;2023-12-20T13:23:57;100765.00;;;7.40
37536;BMP180;23379;51.554;6.736;2023-12-20T13:26:23;100763.00;;;7.30
37536;BMP180;23379;51.554;6.736;2023-12-20T13:28:48;100789.00;;;7.30
37536;BMP180;23379;51.554;6.736;2023-12-20T13:31:14;100781.00;;;7.30
37536;BMP180;23379;51.554;6.736;2023-12-20T13:33:39;100751.00;;;7.40
37536;BMP180;23379;51.554;6.736;2023-12-20T13:36:05;100752.00;;;7.50
37536;BMP180;23379;51.554;6.736;2023-12-20T13:38:31;100754.00;;;7.30
37536;BMP180;23379;51.554;6.736;2023-12-20T13:40:56;100760.00;;;7.40
37536;BMP180;23379;51.554;6.736;2023-12-20T13:43:23;100753.00;;;7.30
37536;BMP180;23379;51.554;6.736;2023-12-20T13:45:49;100750.00;;;7.50
37536;BMP180;23379;51.554;6.736;2023-12-20T13:48:15;100757.00;;;7.50
37536;BMP180;23379;51.554;6.736;2023-12-20T13:50:41;100756.00;;;7.40
37536;BMP180;23379;51.554;6.736;2023-12-20T13:53:06;100740.00;;;7.40
37536;BMP180;23379;51.554;6.736;2023-12-20T13:55:32;100750.00;;;7.60
37536;BMP180;23379;51.554;6.736;2023-12-20T13:57:57;100758.00;;;7.40
37536;BMP180;23379;51.554;6.736;2023-12-20T14:00:23;100746.00;;;7.30
37536;BMP180;23379;51.554;6.736;2023-12-20T14:02:48;100751.00;;;7.30
37536;BMP180;23379;51.554;6.736;2023-12-20T14:05:15;100752.00;;;7.60